METAR Data
IDs: Format: Raw Decoded Include TAF

Data at: 1953 UTC 17 Nov 2019

METAR for:PAAK (Atka Arpt, AK, US)
Text:PAAK 171856Z AUTO 12017KT 6SM -RA BR FEW009 BKN026 OVC031 06/04 A2924 RMK AO2 PRESFR SLP903 T00560044 PNO $
Temperature: 5.6°C ( 42°F)
Dewpoint: 4.4°C ( 40°F) [RH = 92%]
Pressure (altimeter):29.24 inches Hg ( 990.3 mb) [Sea level pressure: 990.3 mb]
Winds:from the ESE (120 degrees) at 20 MPH (17 knots; 8.7 m/s)
Visibility: 6 sm ( 10 km)
Ceiling:2600 feet AGL
Clouds: few clouds at 900 feet AGL, broken clouds at 2600 feet AGL, overcast cloud deck at 3100 feet AGL
Weather:-RA BR (light rain, mist)
QC Flag:automated observation with no human augmentation; SOME DATA ABOVE MAY BE INACCURATE!!!"$" is an indication the sensor requires maintenance.
Text:PAAK 171847Z AUTO 12017KT 5SM RA BR SCT009 BKN021 OVC028 06/04 A2925 RMK AO2 PNO $
Temperature: 6.0°C ( 43°F)
Dewpoint: 4.0°C ( 39°F) [RH = 87%]
Pressure (altimeter):29.25 inches Hg ( 990.6 mb)
Winds:from the ESE (120 degrees) at 20 MPH (17 knots; 8.7 m/s)
Visibility: 5 sm ( 8 km)
Ceiling:2100 feet AGL
Clouds: scattered clouds at 900 feet AGL, broken clouds at 2100 feet AGL, overcast cloud deck at 2800 feet AGL
Weather:RA BR (moderate rain, mist)
QC Flag:automated observation with no human augmentation; SOME DATA ABOVE MAY BE INACCURATE!!!"$" is an indication the sensor requires maintenance.
Text:PAAK 171819Z AUTO 13019G24KT 5SM RA BR SCT013 BKN017 OVC034 06/04 A2927 RMK AO2 PNO $
Temperature: 6.0°C ( 43°F)
Dewpoint: 4.0°C ( 39°F) [RH = 87%]
Pressure (altimeter):29.27 inches Hg ( 991.3 mb)
Winds:from the SE (130 degrees) at 22 MPH (19 knots; 9.8 m/s) gusting to 28 MPH (24 knots; 12.3 m/s)
Visibility: 5 sm ( 8 km)
Ceiling:1700 feet AGL
Clouds: scattered clouds at 1300 feet AGL, broken clouds at 1700 feet AGL, overcast cloud deck at 3400 feet AGL
Weather:RA BR (moderate rain, mist)
QC Flag:automated observation with no human augmentation; SOME DATA ABOVE MAY BE INACCURATE!!!"$" is an indication the sensor requires maintenance.
Text:PAAK 171811Z AUTO 13020G24KT 5SM RA BR BKN013 BKN022 OVC034 06/04 A2928 RMK AO2 PNO $
Temperature: 6.0°C ( 43°F)
Dewpoint: 4.0°C ( 39°F) [RH = 87%]
Pressure (altimeter):29.28 inches Hg ( 991.6 mb)
Winds:from the SE (130 degrees) at 23 MPH (20 knots; 10.3 m/s) gusting to 28 MPH (24 knots; 12.3 m/s)
Visibility: 5 sm ( 8 km)
Ceiling:1300 feet AGL
Clouds: broken clouds at 1300 feet AGL, broken clouds at 2200 feet AGL, overcast cloud deck at 3400 feet AGL
Weather:RA BR (moderate rain, mist)
QC Flag:automated observation with no human augmentation; SOME DATA ABOVE MAY BE INACCURATE!!!"$" is an indication the sensor requires maintenance.
Text:PAAK 171803Z AUTO 13019G25KT 5SM RA BR SCT011 BKN017 OVC036 06/04 A2928 RMK AO2 PNO $
Temperature: 6.0°C ( 43°F)
Dewpoint: 4.0°C ( 39°F) [RH = 87%]
Pressure (altimeter):29.28 inches Hg ( 991.6 mb)
Winds:from the SE (130 degrees) at 22 MPH (19 knots; 9.8 m/s) gusting to 29 MPH (25 knots; 12.9 m/s)
Visibility: 5 sm ( 8 km)
Ceiling:1700 feet AGL
Clouds: scattered clouds at 1100 feet AGL, broken clouds at 1700 feet AGL, overcast cloud deck at 3600 feet AGL
Weather:RA BR (moderate rain, mist)
QC Flag:automated observation with no human augmentation; SOME DATA ABOVE MAY BE INACCURATE!!!"$" is an indication the sensor requires maintenance.
Text:PAAK 171756Z AUTO 13018G21KT 5SM -RA BR BKN011 BKN017 OVC036 06/04 A2929 RMK AO2 SLP919 6//// T00610044 10072 20061 56043 PNO $
Temperature: 6.1°C ( 43°F)
Dewpoint: 4.4°C ( 40°F) [RH = 89%]
Pressure (altimeter):29.29 inches Hg ( 992.0 mb) [Sea level pressure: 991.9 mb]
Winds:from the SE (130 degrees) at 21 MPH (18 knots; 9.3 m/s) gusting to 24 MPH (21 knots; 10.8 m/s)
Visibility: 5 sm ( 8 km)
Ceiling:1100 feet AGL
Clouds: broken clouds at 1100 feet AGL, broken clouds at 1700 feet AGL, overcast cloud deck at 3600 feet AGL
Weather:-RA BR (light rain, mist)
QC Flag:automated observation with no human augmentation; SOME DATA ABOVE MAY BE INACCURATE!!!"$" is an indication the sensor requires maintenance.
Text:PAAK 171656Z AUTO 12017KT 5SM -RA BR BKN011 OVC016 07/05 A2933 RMK AO2 RAB51 CIG 009V014 SLP933 T00670050 PNO $
Temperature: 6.7°C ( 44°F)
Dewpoint: 5.0°C ( 41°F) [RH = 89%]
Pressure (altimeter):29.33 inches Hg ( 993.3 mb) [Sea level pressure: 993.3 mb]
Winds:from the ESE (120 degrees) at 20 MPH (17 knots; 8.7 m/s)
Visibility: 5 sm ( 8 km)
Ceiling:1100 feet AGL
Clouds: broken clouds at 1100 feet AGL, overcast cloud deck at 1600 feet AGL
Weather:-RA BR (light rain, mist)
QC Flag:automated observation with no human augmentation; SOME DATA ABOVE MAY BE INACCURATE!!!"$" is an indication the sensor requires maintenance.
Text:PAAK 171619Z AUTO 12012KT 5SM BR FEW008 BKN012 OVC085 07/05 A2936 RMK AO2 PNO $
Temperature: 7.0°C ( 45°F)
Dewpoint: 5.0°C ( 41°F) [RH = 87%]
Pressure (altimeter):29.36 inches Hg ( 994.3 mb)
Winds:from the ESE (120 degrees) at 14 MPH (12 knots; 6.2 m/s)
Visibility: 5 sm ( 8 km)
Ceiling:1200 feet AGL
Clouds: few clouds at 800 feet AGL, broken clouds at 1200 feet AGL, overcast cloud deck at 8500 feet AGL
Weather:BR (mist)
QC Flag:automated observation with no human augmentation; SOME DATA ABOVE MAY BE INACCURATE!!!"$" is an indication the sensor requires maintenance.
Text:PAAK 171556Z AUTO 08008KT 6SM HZ BKN075 OVC090 07/04 A2936 RMK AO2 RAB1457E09 PRESFR SLP942 T00670039 PNO $
Temperature: 6.7°C ( 44°F)
Dewpoint: 3.9°C ( 39°F) [RH = 82%]
Pressure (altimeter):29.36 inches Hg ( 994.3 mb) [Sea level pressure: 994.2 mb]
Winds:from the E (80 degrees) at 9 MPH (8 knots; 4.1 m/s)
Visibility: 6 sm ( 10 km)
Ceiling:7500 feet AGL
Clouds: broken clouds at 7500 feet AGL, overcast cloud deck at 9000 feet AGL
Weather:HZ (haze)
QC Flag:automated observation with no human augmentation; SOME DATA ABOVE MAY BE INACCURATE!!!"$" is an indication the sensor requires maintenance.
Text:PAAK 171456Z AUTO VRB03KT 6SM HZ FEW017 BKN050 OVC065 07/04 A2941 RMK AO2 SLP962 6//// T00670039 56020 PNO $
Temperature: 6.7°C ( 44°F)
Dewpoint: 3.9°C ( 39°F) [RH = 82%]
Pressure (altimeter):29.41 inches Hg ( 996.0 mb) [Sea level pressure: 996.2 mb]
Winds:variable direction winds at 3 MPH (3 knots; 1.5 m/s)
Visibility: 6 sm ( 10 km)
Ceiling:5000 feet AGL
Clouds: few clouds at 1700 feet AGL, broken clouds at 5000 feet AGL, overcast cloud deck at 6500 feet AGL
Weather:HZ (haze)
QC Flag:automated observation with no human augmentation; SOME DATA ABOVE MAY BE INACCURATE!!!"$" is an indication the sensor requires maintenance.
Text:PAAK 171451Z AUTO 17008KT 6SM HZ FEW017 BKN050 OVC070 07/04 A2943 RMK AO2 PNO $
Temperature: 7.0°C ( 45°F)
Dewpoint: 4.0°C ( 39°F) [RH = 81%]
Pressure (altimeter):29.43 inches Hg ( 996.7 mb)
Winds:from the S (170 degrees) at 9 MPH (8 knots; 4.1 m/s)
Visibility: 6 sm ( 10 km)
Ceiling:5000 feet AGL
Clouds: few clouds at 1700 feet AGL, broken clouds at 5000 feet AGL, overcast cloud deck at 7000 feet AGL
Weather:HZ (haze)
QC Flag:automated observation with no human augmentation; SOME DATA ABOVE MAY BE INACCURATE!!!"$" is an indication the sensor requires maintenance.
Text:PAAK 171356Z AUTO 20009KT 7SM SCT020 BKN055 OVC090 07/04 A2945 RMK AO2 RAE45 SLP975 T00720039 PNO $
Temperature: 7.2°C ( 45°F)
Dewpoint: 3.9°C ( 39°F) [RH = 80%]
Pressure (altimeter):29.45 inches Hg ( 997.4 mb) [Sea level pressure: 997.5 mb]
Winds:from the SSW (200 degrees) at 10 MPH (9 knots; 4.6 m/s)
Visibility: 7 sm ( 11 km)
Ceiling:5500 feet AGL
Clouds: scattered clouds at 2000 feet AGL, broken clouds at 5500 feet AGL, overcast cloud deck at 9000 feet AGL
QC Flag:automated observation with no human augmentation; SOME DATA ABOVE MAY BE INACCURATE!!!"$" is an indication the sensor requires maintenance.

TAF for:PAAK (Atka Arpt, AK, US)
Text:No data found